Time;durP1;ratioP1;P1;durP2;ratioP2;P2;SDS_P1;SDS_P2;PMS_P1;PMS_P2;Temp;Humidity;BMP_temperature;BMP_pressure;BME280_temperature;BME280_humidity;BME280_pressure;Samples;Min_cycle;Max_cycle;Signal;HPM_P1;HPM_P2
2022/01/30 00:00:47;;;;;;;1.17;0.80;;;;;;;5.50;92.88;99816.19;4989570;28;20653;-62
2022/01/30 00:03:15;;;;;;;1.50;0.97;;;;;;;5.51;91.93;99823.91;4990160;28;20679;-62
2022/01/30 00:05:42;;;;;;;1.77;0.90;;;;;;;5.53;91.15;99803.06;4989575;28;20221;-62
2022/01/30 00:08:09;;;;;;;2.40;1.10;;;;;;;5.50;91.93;99791.16;4989981;28;20284;-62
2022/01/30 00:10:41;;;;;;;1.50;0.90;;;;;;;5.49;91.96;99811.94;4990328;28;20202;-62
2022/01/30 00:13:12;;;;;;;1.30;1.10;;;;;;;5.45;92.60;99814.72;4988972;28;20197;-62
2022/01/30 00:15:42;;;;;;;1.40;0.80;;;;;;;5.47;92.59;99820.63;4988692;28;20215;-62
2022/01/30 00:18:26;;;;;;;1.23;0.87;;;;;;;5.51;91.81;99823.03;4989625;28;20186;-62
2022/01/30 00:21:05;;;;;;;1.33;0.80;;;;;;;5.55;92.85;99816.75;4989616;28;20185;-60
2022/01/30 00:23:35;;;;;;;0.73;0.70;;;;;;;5.52;91.47;99804.84;4989870;28;20213;-63
2022/01/30 00:26:06;;;;;;;1.10;0.57;;;;;;;5.54;91.89;99804.72;4993118;28;20204;-62
2022/01/30 00:28:33;;;;;;;0.97;0.60;;;;;;;5.58;91.05;99806.22;4993680;28;20190;-63
2022/01/30 00:31:01;;;;;;;1.17;0.70;;;;;;;5.56;91.66;99808.06;4993549;28;20604;-64
2022/01/30 00:33:27;;;;;;;1.37;0.70;;;;;;;5.61;91.11;99809.50;5008601;28;20189;-63
2022/01/30 00:35:54;;;;;;;2.60;0.67;;;;;;;5.59;90.83;99811.34;4993024;28;20189;-63
2022/01/30 00:38:23;;;;;;;1.27;1.00;;;;;;;5.60;90.31;99781.06;5000933;28;20762;-63
2022/01/30 00:40:51;;;;;;;0.87;0.50;;;;;;;5.60;90.65;99789.69;4993430;28;20609;-63
2022/01/30 00:43:20;;;;;;;0.90;0.60;;;;;;;5.60;90.86;99783.66;4993191;28;20216;-63
2022/01/30 00:45:48;;;;;;;1.20;0.60;;;;;;;5.56;91.15;99787.34;4992505;28;20243;-62
2022/01/30 00:48:16;;;;;;;0.57;0.50;;;;;;;5.57;90.89;99779.50;4993174;28;20217;-62
2022/01/30 00:50:43;;;;;;;1.23;0.70;;;;;;;5.55;90.59;99804.66;5008226;28;20577;-62
2022/01/30 00:53:11;;;;;;;1.63;0.50;;;;;;;5.55;91.70;99806.41;5008445;28;20760;-62
2022/01/30 00:55:38;;;;;;;0.80;0.60;;;;;;;5.52;91.29;99804.84;4992385;28;20206;-62
2022/01/30 00:58:05;;;;;;;0.97;0.80;;;;;;;5.53;91.67;99797.88;4992969;28;20378;-62
2022/01/30 01:00:34;;;;;;;1.50;0.77;;;;;;;5.50;91.94;99803.25;4991846;28;20292;-62
2022/01/30 01:03:02;;;;;;;1.40;0.90;;;;;;;5.46;91.78;99793.06;4992936;28;20213;-62
2022/01/30 01:05:31;;;;;;;0.80;0.60;;;;;;;5.43;92.42;99793.25;4992335;28;20708;-62
2022/01/30 01:08:02;;;;;;;0.90;0.80;;;;;;;5.42;92.80;99791.56;4993151;28;20189;-63
2022/01/30 01:10:38;;;;;;;0.80;0.70;;;;;;;5.39;93.03;99806.47;4991729;28;20240;-62
2022/01/30 01:13:19;;;;;;;0.50;0.43;;;;;;;5.43;92.99;99801.00;5007686;28;20187;-63
2022/01/30 01:24:04;;;;;;;0.80;0.70;;;;;;;5.40;95.60;99797.78;4990544;28;20225;-63
2022/01/30 01:26:32;;;;;;;1.00;0.70;;;;;;;5.32;96.03;99774.91;4992445;28;20185;-62
2022/01/30 01:28:59;;;;;;;2.40;0.67;;;;;;;5.31;96.52;99797.38;4991320;28;20244;-63
2022/01/30 01:31:27;;;;;;;1.53;0.70;;;;;;;5.30;96.13;99789.72;5007396;28;20197;-62
2022/01/30 01:36:40;;;;;;;0.93;0.63;;;;;;;5.30;97.07;99787.94;4991733;28;20185;-63
2022/01/30 01:39:07;;;;;;;1.23;0.63;;;;;;;5.26;97.57;99788.22;4977541;28;20202;-63
2022/01/30 01:41:35;;;;;;;0.93;0.73;;;;;;;5.25;97.87;99786.56;4990750;28;20197;-63
2022/01/30 01:44:03;;;;;;;1.23;0.70;;;;;;;5.26;97.01;99781.28;4990747;28;20300;-63
2022/01/30 01:46:35;;;;;;;0.93;0.60;;;;;;;5.26;96.86;99790.81;4990939;28;20198;-63
2022/01/30 01:49:02;;;;;;;0.97;0.80;;;;;;;5.26;97.57;99768.34;4974590;28;20217;-63
2022/01/30 01:51:31;;;;;;;0.57;0.50;;;;;;;5.24;97.39;99767.59;4979374;28;20296;-63
2022/01/30 01:54:00;;;;;;;0.80;0.60;;;;;;;5.26;96.44;99780.47;5006327;28;20213;-63
2022/01/30 01:56:28;;;;;;;1.33;0.77;;;;;;;5.27;96.10;99771.78;4990311;28;20284;-62
2022/01/30 01:59:05;;;;;;;1.13;0.73;;;;;;;5.28;96.43;99763.91;4990343;28;20207;-63
2022/01/30 02:01:53;;;;;;;0.90;0.63;;;;;;;5.29;95.44;99768.16;4991870;28;20200;-63
2022/01/30 02:04:20;;;;;;;0.90;0.70;;;;;;;5.31;95.57;99779.25;4990785;28;20225;-63
2022/01/30 02:06:58;;;;;;;2.23;0.80;;;;;;;5.29;96.27;99775.94;4990305;28;20251;-63
2022/01/30 02:09:29;;;;;;;0.60;0.50;;;;;;;5.33;95.21;99771.38;4991708;28;20181;-63
2022/01/30 02:11:58;;;;;;;1.70;0.80;;;;;;;5.32;95.27;99764.53;4990416;28;20701;-63
2022/01/30 02:14:36;;;;;;;0.90;0.70;;;;;;;5.37;95.37;99774.66;4989100;28;20272;-63
2022/01/30 02:25:35;;;;;;;0.97;0.60;;;;;;;5.41;94.71;99771.78;4990560;28;20238;-62
2022/01/30 02:28:08;;;;;;;0.70;0.60;;;;;;;5.47;94.68;99765.44;4989553;28;20620;-62
2022/01/30 02:30:38;;;;;;;0.57;0.50;;;;;;;5.45;94.91;99764.69;5006357;28;20197;-62
2022/01/30 02:33:05;;;;;;;1.13;0.70;;;;;;;5.41;96.13;99770.97;4989381;28;20209;-62
2022/01/30 02:35:32;;;;;;;0.77;0.57;;;;;;;5.41;96.23;99758.00;4973798;28;20796;-62
2022/01/30 02:38:02;;;;;;;1.10;0.70;;;;;;;5.37;96.86;99757.34;4989701;28;20204;-62
2022/01/30 02:40:31;;;;;;;1.33;0.70;;;;;;;5.31;97.79;99758.56;4989074;28;20240;-62
2022/01/30 02:42:58;;;;;;;0.93;0.80;;;;;;;5.28;97.72;99750.97;4991095;28;20670;-62
2022/01/30 02:45:29;;;;;;;1.20;0.80;;;;;;;5.25;98.63;99743.38;4972664;28;20986;-62
2022/01/30 02:48:11;;;;;;;1.50;0.90;;;;;;;5.24;99.35;99746.06;4988602;28;20263;-62
2022/01/30 02:50:49;;;;;;;0.80;0.80;;;;;;;5.23;99.89;99742.63;4989557;28;20653;-62
2022/01/30 02:53:18;;;;;;;1.73;0.77;;;;;;;5.26;99.73;99750.22;4988845;28;20228;-63
2022/01/30 02:55:44;;;;;;;1.10;0.70;;;;;;;5.30;99.32;99738.75;5002385;28;20220;-63
2022/01/30 02:58:12;;;;;;;0.83;0.70;;;;;;;5.20;100.00;99750.56;5005209;28;20203;-62
2022/01/30 03:00:38;;;;;;;2.70;0.80;;;;;;;5.21;100.00;99759.19;5004718;28;20199;-62
2022/01/30 03:03:05;;;;;;;1.00;0.83;;;;;;;5.16;100.00;99743.91;5006013;28;20201;-63
2022/01/30 03:05:32;;;;;;;1.10;0.87;;;;;;;5.17;100.00;99749.00;5004656;28;20225;-63
2022/01/30 03:08:00;;;;;;;2.47;0.80;;;;;;;5.21;100.00;99748.81;5005755;28;20640;-63
2022/01/30 03:10:28;;;;;;;1.27;0.90;;;;;;;5.22;100.00;99759.06;5005906;28;20690;-62
2022/01/30 03:12:55;;;;;;;1.27;0.90;;;;;;;5.25;100.00;99739.97;4990786;28;20614;-63
2022/01/30 03:15:22;;;;;;;1.87;0.90;;;;;;;5.27;100.00;99753.66;5004706;28;20221;-63
2022/01/30 03:17:50;;;;;;;1.13;0.90;;;;;;;5.28;100.00;99737.19;5005309;28;20240;-63
2022/01/30 03:20:16;;;;;;;1.27;0.77;;;;;;;5.24;100.00;99759.00;5005676;28;20565;-63
2022/01/30 03:22:43;;;;;;;1.10;0.80;;;;;;;5.25;100.00;99752.91;5005824;28;20208;-63
2022/01/30 03:25:10;;;;;;;1.40;0.90;;;;;;;5.25;100.00;99764.09;5004589;28;20256;-63
2022/01/30 03:28:05;;;;;;;2.47;0.87;;;;;;;5.22;100.00;99763.44;4981994;28;20197;-63
2022/01/30 03:30:37;;;;;;;1.07;0.70;;;;;;;5.24;100.00;99762.41;5005800;28;20658;-63
2022/01/30 03:33:14;;;;;;;1.83;0.80;;;;;;;5.21;100.00;99772.94;5005625;28;20193;-63
2022/01/30 03:35:41;;;;;;;1.03;0.93;;;;;;;5.18;100.00;99775.72;5003528;28;20568;-63
2022/01/30 03:38:09;;;;;;;1.20;1.00;;;;;;;5.20;100.00;99770.47;4989240;28;20181;-63
2022/01/30 03:40:36;;;;;;;1.23;1.00;;;;;;;5.22;100.00;99787.56;4986398;28;20227;-64
2022/01/30 03:43:05;;;;;;;2.40;0.90;;;;;;;5.26;100.00;99781.28;4985180;28;20192;-63
2022/01/30 03:45:32;;;;;;;3.13;1.17;;;;;;;5.28;100.00;99794.16;4970738;28;20244;-64
2022/01/30 03:47:59;;;;;;;1.73;1.10;;;;;;;5.36;100.00;99791.94;4987828;28;20193;-63
2022/01/30 03:50:57;;;;;;;3.07;1.27;;;;;;;5.43;100.00;99792.41;4970902;28;20197;-63
2022/01/30 03:53:24;;;;;;;1.43;0.80;;;;;;;5.44;100.00;99792.31;4993437;28;20274;-64
2022/01/30 03:55:51;;;;;;;1.50;1.07;;;;;;;5.46;100.00;99802.59;4995043;28;20715;-62
2022/01/30 03:58:27;;;;;;;1.43;0.93;;;;;;;5.44;99.74;99794.09;4996035;28;20200;-64
2022/01/30 04:00:55;;;;;;;1.47;1.00;;;;;;;5.43;100.00;99795.00;4999767;28;20228;-63
2022/01/30 04:03:23;;;;;;;3.17;0.73;;;;;;;5.44;99.42;99809.63;4975204;28;20248;-64
2022/01/30 04:05:50;;;;;;;1.43;0.80;;;;;;;5.43;100.00;99811.38;4990061;28;20228;-65
2022/01/30 04:08:17;;;;;;;1.47;0.70;;;;;;;5.46;99.49;99808.59;4992509;28;20213;-64
2022/01/30 04:10:59;;;;;;;1.67;0.73;;;;;;;5.42;100.00;99808.88;4975099;28;20185;-64
2022/01/30 04:13:44;;;;;;;1.27;0.80;;;;;;;5.41;100.00;99818.38;4974436;28;20197;-63
2022/01/30 04:16:11;;;;;;;2.53;0.90;;;;;;;5.37;100.00;99823.84;4991902;28;20221;-63
2022/01/30 04:18:59;;;;;;;1.53;0.80;;;;;;;5.35;100.00;99821.31;4961889;28;20308;-64
2022/01/30 04:21:45;;;;;;;2.37;1.10;;;;;;;5.33;100.00;99828.34;4990657;28;20566;-64
2022/01/30 04:24:50;;;;;;;1.60;1.17;;;;;;;5.28;100.00;99835.56;4969825;28;20729;-63
2022/01/30 04:27:44;;;;;;;1.30;0.97;;;;;;;5.25;100.00;99844.34;4964537;28;20198;-63
2022/01/30 04:30:27;;;;;;;3.43;1.40;;;;;;;5.27;100.00;99844.25;4987681;28;20923;-63
2022/01/30 04:33:21;;;;;;;2.30;1.13;;;;;;;5.26;100.00;99856.34;4990478;28;20197;-63
2022/01/30 04:36:10;;;;;;;2.00;1.17;;;;;;;5.17;100.00;99844.78;4997997;28;20452;-63
2022/01/30 04:39:04;;;;;;;2.47;1.20;;;;;;;5.12;100.00;99862.31;4966015;28;20783;-63
2022/01/30 04:42:05;;;;;;;2.10;1.50;;;;;;;5.16;100.00;99858.63;4976133;28;20197;-63
2022/01/30 04:57:50;;;;;;;5.53;2.43;;;;;;;5.20;100.00;99871.41;4907181;29;20739;-63
2022/01/30 05:04:03;;;;;;;2.53;1.60;;;;;;;5.19;100.00;99862.78;4941417;28;20340;-63
2022/01/30 05:09:57;;;;;;;2.67;1.70;;;;;;;5.10;100.00;99848.63;4989443;28;20207;-63
2022/01/30 05:12:38;;;;;;;5.30;2.23;;;;;;;5.10;100.00;99851.22;4990266;28;20200;-63
2022/01/30 05:15:27;;;;;;;9.03;1.80;;;;;;;5.02;100.00;99843.88;4988425;28;20224;-63
2022/01/30 05:18:17;;;;;;;3.73;2.20;;;;;;;4.94;100.00;99837.47;4990360;28;20204;-63
2022/01/30 05:21:05;;;;;;;2.50;1.63;;;;;;;4.85;100.00;99842.22;4996364;28;20205;-64
2022/01/30 05:23:50;;;;;;;4.63;1.50;;;;;;;4.78;100.00;99838.28;4995835;28;20213;-63
2022/01/30 05:26:27;;;;;;;1.90;1.60;;;;;;;4.76;100.00;99831.56;4991532;28;20604;-63
2022/01/30 05:29:22;;;;;;;1.83;1.23;;;;;;;4.70;100.00;99836.13;4985168;28;20621;-63
2022/01/30 05:31:59;;;;;;;3.73;1.73;;;;;;;4.64;100.00;99839.06;4997673;28;20712;-63
2022/01/30 05:34:44;;;;;;;2.80;1.63;;;;;;;4.66;100.00;99826.88;4990866;28;20225;-63
2022/01/30 05:37:21;;;;;;;2.97;1.60;;;;;;;4.69;100.00;99849.13;4973544;28;20205;-63
2022/01/30 05:40:08;;;;;;;2.33;1.50;;;;;;;4.68;100.00;99843.16;4989560;28;20216;-63
2022/01/30 05:42:58;;;;;;;1.97;1.50;;;;;;;4.74;100.00;99849.72;4997309;28;20294;-63
2022/01/30 05:45:55;;;;;;;4.27;1.50;;;;;;;4.77;100.00;99853.91;4984098;28;20753;-63
2022/01/30 05:48:45;;;;;;;3.67;1.50;;;;;;;4.80;100.00;99856.31;4988320;28;20189;-63
2022/01/30 05:51:38;;;;;;;6.47;1.83;;;;;;;4.81;100.00;99871.75;4984195;28;20201;-63
2022/01/30 05:54:18;;;;;;;7.47;2.20;;;;;;;4.80;100.00;99866.66;4988288;28;20205;-63
2022/01/30 05:56:45;;;;;;;8.80;1.80;;;;;;;4.85;100.00;99869.81;4987240;28;20193;-64
2022/01/30 05:59:16;;;;;;;7.63;4.10;;;;;;;4.86;100.00;99868.91;4989870;28;20247;-63
2022/01/30 06:02:01;;;;;;;4.53;2.30;;;;;;;4.91;100.00;99876.44;4990729;28;20274;-63
2022/01/30 06:04:28;;;;;;;7.03;3.03;;;;;;;4.94;100.00;99881.44;4996959;28;20211;-63
2022/01/30 06:06:56;;;;;;;10.93;4.77;;;;;;;4.94;100.00;99887.44;4997436;28;20293;-63
2022/01/30 06:09:24;;;;;;;6.57;2.47;;;;;;;4.98;100.00;99888.13;4973502;28;20645;-63
2022/01/30 06:11:53;;;;;;;5.33;2.23;;;;;;;5.04;100.00;99880.03;4989587;28;20561;-63
2022/01/30 06:14:23;;;;;;;6.07;2.53;;;;;;;5.09;100.00;99882.34;4988578;28;20201;-63
2022/01/30 06:16:56;;;;;;;4.60;2.30;;;;;;;5.07;100.00;99886.78;4972981;28;20188;-63
2022/01/30 06:19:41;;;;;;;3.87;2.13;;;;;;;5.03;100.00;99897.28;4990503;28;20296;-63
2022/01/30 06:22:27;;;;;;;5.90;2.00;;;;;;;5.02;100.00;99900.78;4988248;28;20285;-63
2022/01/30 06:25:15;;;;;;;5.63;2.70;;;;;;;5.06;100.00;99906.66;4988206;28;20696;-63
2022/01/30 06:28:20;;;;;;;14.13;4.13;;;;;;;5.11;100.00;99907.25;4990034;28;20193;-63
2022/01/30 06:30:47;;;;;;;5.00;2.40;;;;;;;5.11;100.00;99911.56;4990619;28;20197;-63
2022/01/30 06:33:29;;;;;;;9.57;2.33;;;;;;;5.08;100.00;99917.75;4988254;28;20185;-63
2022/01/30 06:36:31;;;;;;;5.73;2.20;;;;;;;5.07;100.00;99917.81;4990134;28;20664;-63
2022/01/30 06:39:18;;;;;;;5.33;1.77;;;;;;;5.08;100.00;99922.94;4990203;28;20609;-63
2022/01/30 06:42:19;;;;;;;8.70;2.90;;;;;;;5.07;100.00;99926.44;4945935;28;20195;-63
2022/01/30 06:44:49;;;;;;;13.90;3.23;;;;;;;5.06;100.00;99929.09;4987230;28;20224;-63
2022/01/30 06:47:40;;;;;;;8.13;2.90;;;;;;;5.08;100.00;99941.06;4988764;28;20205;-63
2022/01/30 06:50:33;;;;;;;11.53;3.70;;;;;;;5.06;99.81;99942.88;4972878;28;20237;-63
2022/01/30 06:53:20;;;;;;;8.20;2.60;;;;;;;5.09;99.50;99947.91;4989229;28;20228;-63
2022/01/30 06:56:07;;;;;;;10.27;3.23;;;;;;;5.10;99.14;99940.94;4987443;28;20192;-63
2022/01/30 06:58:56;;;;;;;10.27;2.80;;;;;;;5.09;99.02;99945.31;4988340;28;20208;-63
2022/01/30 07:01:41;;;;;;;11.17;3.40;;;;;;;5.07;98.53;99941.13;4989611;28;20194;-63
2022/01/30 07:04:28;;;;;;;12.57;3.43;;;;;;;5.07;98.92;99943.72;4988967;28;20228;-64
2022/01/30 07:07:10;;;;;;;9.60;3.00;;;;;;;5.03;99.24;99948.22;4996551;28;20660;-63
2022/01/30 07:09:37;;;;;;;11.67;3.07;;;;;;;5.02;99.78;99951.72;4989916;28;20196;-63
2022/01/30 07:12:05;;;;;;;9.77;2.77;;;;;;;4.99;99.64;99957.88;4989897;28;20573;-63
2022/01/30 07:14:33;;;;;;;11.43;3.43;;;;;;;4.96;100.00;99952.06;4989038;28;20741;-63
2022/01/30 07:17:00;;;;;;;10.77;3.03;;;;;;;4.97;99.65;99949.38;4989722;28;20221;-63
2022/01/30 07:19:27;;;;;;;11.43;2.90;;;;;;;4.97;100.00;99959.72;4989399;28;20193;-63
2022/01/30 07:21:54;;;;;;;14.33;4.53;;;;;;;4.96;99.94;99967.59;4988467;28;20198;-63
2022/01/30 07:24:21;;;;;;;11.07;3.33;;;;;;;4.93;100.00;99970.34;4988721;28;20205;-63
2022/01/30 07:26:48;;;;;;;7.47;3.27;;;;;;;4.87;100.00;99964.56;4989351;28;20223;-63
2022/01/30 07:29:14;;;;;;;6.33;3.07;;;;;;;4.88;100.00;99973.16;4990007;28;20264;-63
2022/01/30 07:31:43;;;;;;;7.17;2.90;;;;;;;4.85;100.00;99971.56;4989613;28;20290;-64
2022/01/30 07:34:10;;;;;;;7.47;2.97;;;;;;;4.85;100.00;99968.13;4990081;28;20724;-63
2022/01/30 07:36:38;;;;;;;7.50;2.80;;;;;;;4.85;99.79;99976.75;4993623;28;20182;-63
2022/01/30 07:39:08;;;;;;;7.77;2.83;;;;;;;4.86;99.01;99983.59;4990787;28;20189;-63
2022/01/30 07:41:35;;;;;;;10.70;3.63;;;;;;;4.85;99.71;100000.03;4993658;28;20216;-63
2022/01/30 07:44:03;;;;;;;8.10;3.00;;;;;;;4.82;98.93;99996.75;4993036;28;20210;-63
2022/01/30 07:46:31;;;;;;;9.80;3.03;;;;;;;4.88;98.37;100002.47;4996241;28;20209;-63
2022/01/30 07:49:00;;;;;;;16.10;4.20;;;;;;;4.86;95.65;100004.28;4993061;28;20205;-63
2022/01/30 07:51:26;;;;;;;15.87;4.40;;;;;;;4.90;95.39;100001.53;4991217;28;20193;-63
2022/01/30 07:53:53;;;;;;;15.87;4.13;;;;;;;4.95;95.55;100002.13;4992847;28;20224;-63
2022/01/30 07:56:20;;;;;;;13.80;4.00;;;;;;;4.98;94.99;100007.97;4993324;28;20198;-63
2022/01/30 07:58:47;;;;;;;18.90;4.33;;;;;;;4.99;95.15;100012.22;4993396;28;20189;-64
2022/01/30 08:01:13;;;;;;;18.80;3.80;;;;;;;4.98;94.97;100007.97;4993379;28;20404;-63
2022/01/30 08:03:40;;;;;;;19.60;5.33;;;;;;;5.01;95.47;100012.16;4992628;28;20201;-63
2022/01/30 08:06:08;;;;;;;13.67;4.33;;;;;;;5.02;95.07;100017.25;4992932;28;20209;-63
2022/01/30 08:08:35;;;;;;;11.10;4.40;;;;;;;5.07;94.80;100013.59;4992947;28;20641;-63
2022/01/30 08:11:02;;;;;;;16.53;4.57;;;;;;;5.08;94.49;100021.28;4993114;28;20212;-63
2022/01/30 08:13:29;;;;;;;15.07;4.70;;;;;;;5.11;94.56;100023.72;4992939;28;20203;-63
2022/01/30 08:15:56;;;;;;;18.90;4.33;;;;;;;5.16;94.04;100015.69;4992338;28;20193;-63
2022/01/30 08:18:22;;;;;;;17.47;4.00;;;;;;;5.15;93.61;100016.59;4992795;28;20728;-64
2022/01/30 08:20:49;;;;;;;19.20;6.63;;;;;;;5.17;93.16;100022.53;4992709;28;20204;-63
2022/01/30 08:23:19;;;;;;;9.90;4.20;;;;;;;5.14;92.68;100027.88;4992980;28;20190;-63
2022/01/30 08:25:46;;;;;;;24.30;4.30;;;;;;;5.19;92.53;100032.81;4992170;28;20616;-63
2022/01/30 08:28:13;;;;;;;13.87;4.03;;;;;;;5.15;92.17;100030.41;4993194;28;20668;-63
2022/01/30 08:30:40;;;;;;;12.13;3.60;;;;;;;5.22;92.08;100037.84;4992550;28;20647;-63
2022/01/30 08:33:07;;;;;;;14.80;3.87;;;;;;;5.23;91.66;100042.09;4990369;28;20191;-63
2022/01/30 08:35:34;;;;;;;12.20;3.80;;;;;;;5.13;92.06;100040.00;4991977;28;20206;-64
2022/01/30 08:38:01;;;;;;;15.80;4.20;;;;;;;5.26;91.84;100050.53;4992410;28;20194;-64
2022/01/30 08:40:29;;;;;;;19.13;3.67;;;;;;;5.16;91.45;100047.59;4992916;28;20194;-63
2022/01/30 08:42:56;;;;;;;20.33;5.23;;;;;;;5.16;91.33;100047.59;4992473;28;20186;-63
2022/01/30 08:45:23;;;;;;;15.43;4.33;;;;;;;5.09;90.78;100051.44;4991611;28;20209;-63
2022/01/30 08:47:51;;;;;;;25.03;4.60;;;;;;;5.20;91.22;100060.38;4992431;28;20197;-63
2022/01/30 08:50:21;;;;;;;18.27;4.27;;;;;;;5.16;90.92;100052.78;4992364;28;20199;-63
2022/01/30 08:52:48;;;;;;;19.23;4.40;;;;;;;5.12;89.78;100053.00;4990029;28;20197;-64
2022/01/30 08:55:16;;;;;;;13.80;3.80;;;;;;;5.20;90.07;100048.25;4991554;28;20205;-63
2022/01/30 08:57:45;;;;;;;17.30;4.33;;;;;;;5.41;89.18;100055.81;4992308;28;20676;-64
2022/01/30 09:00:13;;;;;;;16.30;4.53;;;;;;;5.38;88.54;100063.75;4992140;28;20193;-64
2022/01/30 09:02:41;;;;;;;22.20;4.75;;;;;;;5.41;89.13;100061.81;4991260;28;20949;-65
2022/01/30 09:05:09;;;;;;;18.30;4.63;;;;;;;5.42;89.04;100060.88;4989465;28;20209;-64
2022/01/30 09:07:37;;;;;;;22.57;5.03;;;;;;;5.39;89.60;100068.81;4992508;28;20181;-64
2022/01/30 09:10:05;;;;;;;16.73;4.77;;;;;;;5.15;90.17;100069.22;4991731;28;20191;-65
2022/01/30 09:12:34;;;;;;;30.30;5.53;;;;;;;5.04;90.40;100071.53;4992093;28;20197;-64
2022/01/30 09:15:03;;;;;;;18.83;5.57;;;;;;;4.98;90.60;100062.31;4991227;28;20213;-64
2022/01/30 09:17:30;;;;;;;23.60;5.90;;;;;;;4.96;90.62;100061.56;4991797;28;20189;-64
2022/01/30 09:19:57;;;;;;;20.27;5.70;;;;;;;4.93;90.71;100058.31;4991734;28;20181;-64
2022/01/30 09:22:23;;;;;;;30.90;7.17;;;;;;;5.06;89.74;100072.28;4989890;28;20197;-64
2022/01/30 09:24:51;;;;;;;17.67;4.87;;;;;;;5.14;89.05;100069.28;4989849;28;20225;-64
2022/01/30 09:27:18;;;;;;;20.63;6.17;;;;;;;5.27;89.38;100066.91;4991646;28;20215;-64
2022/01/30 09:29:45;;;;;;;30.17;12.30;;;;;;;5.36;89.36;100073.34;4991529;28;20291;-64
2022/01/30 09:32:14;;;;;;;23.77;8.67;;;;;;;5.36;88.19;100070.75;4991669;28;20185;-65
2022/01/30 09:34:41;;;;;;;20.83;5.88;;;;;;;5.44;88.55;100073.78;4990470;28;20429;-65
2022/01/30 09:37:08;;;;;;;17.23;5.27;;;;;;;5.46;88.17;100071.94;4988967;28;20181;-65
2022/01/30 09:39:35;;;;;;;17.60;5.20;;;;;;;5.40;88.08;100077.44;4991385;28;20208;-65
2022/01/30 09:42:03;;;;;;;22.63;5.83;;;;;;;5.46;88.04;100072.75;4991298;28;20189;-64
2022/01/30 09:44:30;;;;;;;23.73;4.97;;;;;;;5.49;87.56;100070.91;4990587;28;20709;-64
2022/01/30 09:46:57;;;;;;;31.83;9.87;;;;;;;5.60;87.42;100078.94;4991343;28;20231;-64
2022/01/30 09:49:27;;;;;;;15.97;6.77;;;;;;;5.45;87.88;100072.84;4991347;28;20196;-65
2022/01/30 09:51:54;;;;;;;28.50;9.40;;;;;;;5.41;87.28;100069.56;4991133;28;20201;-64
2022/01/30 09:54:22;;;;;;;25.90;8.90;;;;;;;5.27;87.05;100059.97;4990632;28;20225;-65
2022/01/30 09:56:49;;;;;;;20.57;5.03;;;;;;;5.11;88.88;100069.44;4990774;28;20192;-64
2022/01/30 09:59:16;;;;;;;22.37;8.20;;;;;;;5.16;88.03;100064.88;4991168;28;20272;-64
2022/01/30 10:01:43;;;;;;;22.57;6.93;;;;;;;5.06;89.42;100066.25;4990824;28;20247;-65
2022/01/30 10:04:10;;;;;;;18.10;6.13;;;;;;;5.10;88.63;100068.63;4990209;28;20212;-64
2022/01/30 10:06:57;;;;;;;21.23;6.87;;;;;;;4.94;90.51;100059.97;4990941;28;20267;-64
2022/01/30 10:09:28;;;;;;;21.50;5.90;;;;;;;4.96;89.75;100058.97;4990717;28;20190;-63
2022/01/30 10:12:11;;;;;;;18.93;5.63;;;;;;;5.05;89.58;100060.25;4991100;28;20204;-64
2022/01/30 10:14:52;;;;;;;22.80;6.80;;;;;;;5.11;89.51;100059.94;4989119;28;20221;-64
2022/01/30 10:17:27;;;;;;;23.53;7.60;;;;;;;5.20;89.41;100052.63;4989809;28;20197;-64
2022/01/30 10:20:07;;;;;;;15.13;5.63;;;;;;;5.40;88.28;100062.72;4989383;28;20194;-63
2022/01/30 10:22:39;;;;;;;23.63;6.43;;;;;;;5.58;87.43;100068.69;4989067;28;20649;-64
2022/01/30 10:25:06;;;;;;;25.03;6.07;;;;;;;5.72;86.50;100065.34;4989934;28;20744;-64
2022/01/30 10:27:34;;;;;;;21.90;5.37;;;;;;;5.59;86.67;100056.56;4990774;28;20217;-63
2022/01/30 10:30:03;;;;;;;21.67;6.83;;;;;;;5.65;86.85;100070.94;4990881;28;20247;-62
2022/01/30 10:32:30;;;;;;;15.70;5.63;;;;;;;5.75;85.84;100059.97;4988466;28;20187;-63
2022/01/30 10:35:00;;;;;;;23.47;5.20;;;;;;;5.97;84.81;100055.34;4990115;28;20217;-64
2022/01/30 10:37:27;;;;;;;19.73;4.90;;;;;;;6.03;83.19;100034.31;4987987;28;20256;-63
2022/01/30 10:39:58;;;;;;;20.10;6.17;;;;;;;5.98;82.81;100034.56;4990506;28;20697;-64
2022/01/30 10:42:39;;;;;;;20.43;5.63;;;;;;;5.93;82.41;100030.53;4990249;28;20189;-64
2022/01/30 10:45:12;;;;;;;19.97;5.10;;;;;;;5.89;82.50;100025.53;4989358;28;20221;-64
2022/01/30 10:47:39;;;;;;;18.23;5.57;;;;;;;5.92;81.68;100021.94;4990261;28;20217;-65
2022/01/30 10:50:13;;;;;;;16.17;5.60;;;;;;;5.89;82.12;100022.09;4990231;28;20186;-64
2022/01/30 10:52:55;;;;;;;19.47;5.13;;;;;;;5.61;81.95;100008.09;4990256;28;20196;-64
2022/01/30 10:55:44;;;;;;;20.50;5.63;;;;;;;5.51;82.56;100006.94;4988858;28;20214;-64
2022/01/30 10:58:14;;;;;;;23.97;5.93;;;;;;;5.46;82.71;100008.00;4987999;28;20189;-64
2022/01/30 11:00:45;;;;;;;24.37;5.53;;;;;;;5.23;82.22;100000.69;4990141;28;20196;-64
2022/01/30 11:03:36;;;;;;;24.63;5.63;;;;;;;5.28;81.61;100006.44;4987921;28;20196;-64
2022/01/30 11:06:04;;;;;;;22.90;5.33;;;;;;;5.23;81.98;100003.28;4989072;28;20193;-64
2022/01/30 11:08:32;;;;;;;19.87;4.83;;;;;;;5.28;81.50;100001.28;4989186;28;20272;-64
2022/01/30 11:11:10;;;;;;;27.30;5.30;;;;;;;5.36;80.79;100000.84;4989876;28;20220;-64
2022/01/30 11:13:48;;;;;;;23.77;4.37;;;;;;;5.53;78.77;99999.91;4988013;28;20197;-64
2022/01/30 11:19:01;;;;;;;28.30;5.17;;;;;;;5.98;75.33;100003.44;4989016;28;20193;-64
2022/01/30 11:21:29;;;;;;;20.47;4.67;;;;;;;6.18;74.78;99993.72;4986222;28;20233;-64
2022/01/30 11:23:58;;;;;;;17.07;5.23;;;;;;;6.18;76.16;99991.97;4988738;28;20260;-64
2022/01/30 11:26:28;;;;;;;11.87;4.70;;;;;;;6.27;73.13;100002.72;4989613;28;20669;-64
2022/01/30 11:28:56;;;;;;;18.40;3.30;;;;;;;6.30;67.56;100002.53;4989980;28;20196;-64
2022/01/30 11:31:25;;;;;;;19.27;4.27;;;;;;;6.16;66.16;99998.16;4989935;28;20199;-64
2022/01/30 11:33:54;;;;;;;16.53;3.00;;;;;;;6.01;67.13;100003.31;4988795;28;20259;-64
2022/01/30 11:36:24;;;;;;;14.53;3.77;;;;;;;6.05;66.71;100001.34;4989780;28;20185;-64
2022/01/30 11:38:51;;;;;;;10.63;3.23;;;;;;;6.07;67.05;100003.88;4987474;28;20197;-64
2022/01/30 11:41:19;;;;;;;13.47;3.90;;;;;;;6.26;68.07;100003.66;4989801;28;20645;-64
2022/01/30 11:44:27;;;;;;;13.53;3.57;;;;;;;6.05;67.33;99997.03;4988959;28;20205;-63
2022/01/30 11:47:19;;;;;;;14.57;4.27;;;;;;;6.11;66.79;99990.63;4987968;28;20209;-64
2022/01/30 11:49:52;;;;;;;17.17;3.40;;;;;;;6.03;66.13;100003.19;4996433;28;20205;-63
2022/01/30 11:52:20;;;;;;;17.10;4.97;;;;;;;6.11;65.85;99992.41;4989658;28;20193;-63
2022/01/30 11:54:49;;;;;;;22.20;5.20;;;;;;;6.20;65.24;99994.47;4986327;28;20217;-64
2022/01/30 11:57:45;;;;;;;13.77;4.40;;;;;;;6.18;64.93;99993.72;4989936;28;20236;-64
2022/01/30 12:00:36;;;;;;;17.03;4.37;;;;;;;6.17;65.33;99990.28;4987677;28;20197;-64
2022/01/30 12:03:23;;;;;;;18.80;3.60;;;;;;;6.21;64.69;99990.97;4988792;28;20198;-64
2022/01/30 12:05:50;;;;;;;14.93;3.13;;;;;;;6.21;63.66;99985.78;4986539;28;20221;-64
2022/01/30 12:08:47;;;;;;;13.53;4.00;;;;;;;6.32;65.08;99987.72;4989675;28;20202;-65
2022/01/30 12:11:50;;;;;;;14.73;3.43;;;;;;;6.59;65.55;99993.03;4973461;28;20201;-64
2022/01/30 12:14:53;;;;;;;19.30;3.67;;;;;;;6.86;61.92;99996.69;4987275;28;20231;-64
2022/01/30 12:17:52;;;;;;;15.43;3.37;;;;;;;7.00;61.64;99993.22;4988583;28;20185;-64
2022/01/30 12:20:20;;;;;;;18.77;3.67;;;;;;;6.79;61.30;99991.00;4990187;28;20264;-64
2022/01/30 12:22:47;;;;;;;16.60;3.43;;;;;;;6.81;61.71;99986.56;4991777;28;20193;-64
2022/01/30 12:25:38;;;;;;;15.60;3.70;;;;;;;6.92;63.57;99985.91;4992371;28;20213;-64
2022/01/30 12:28:11;;;;;;;19.67;3.27;;;;;;;6.90;63.63;99980.81;4992378;28;20205;-64
2022/01/30 12:30:52;;;;;;;16.67;3.80;;;;;;;7.10;63.62;99978.75;4993092;28;20190;-63
2022/01/30 12:33:42;;;;;;;17.20;4.03;;;;;;;7.22;64.78;99971.97;4991560;28;20193;-65
2022/01/30 12:36:28;;;;;;;11.83;3.87;;;;;;;7.31;62.59;99975.75;4990118;28;20271;-65
2022/01/30 12:39:02;;;;;;;12.43;3.17;;;;;;;7.29;59.83;99977.63;4991101;28;20202;-64
2022/01/30 12:41:30;;;;;;;16.00;3.57;;;;;;;7.13;59.15;99967.34;4992948;28;20213;-64
2022/01/30 12:43:59;;;;;;;16.17;3.10;;;;;;;6.83;60.95;99969.13;4991715;28;20213;-64